Time;durP1;ratioP1;P1;durP2;ratioP2;P2;SDS_P1;SDS_P2;PMS_P1;PMS_P2;Temp;Humidity;BMP_temperature;BMP_pressure;BME280_temperature;BME280_humidity;BME280_pressure;Samples;Min_cycle;Max_cycle;Signal;HPM_P1;HPM_P2
2023/03/19 00:01:07;;;;;;;12.85;5.82;;;;;;;11.56;100.00;101215.25;2086160;28;20049;-73
2023/03/19 00:02:28;;;;;;;11.43;4.40;;;;;;;11.58;100.00;101213.53;2094135;28;20049;-72
2023/03/19 00:03:50;;;;;;;13.32;4.63;;;;;;;11.59;100.00;101214.44;2080471;28;20049;-73
2023/03/19 00:05:13;;;;;;;8.52;4.38;;;;;;;11.63;100.00;101196.84;2086294;28;20060;-73
2023/03/19 00:06:35;;;;;;;15.32;4.90;;;;;;;11.64;100.00;101210.13;2092931;28;20048;-73
2023/03/19 00:07:57;;;;;;;9.57;4.35;;;;;;;11.64;100.00;101196.00;2093724;28;20128;-73
2023/03/19 00:09:20;;;;;;;10.52;4.57;;;;;;;11.63;100.00;101194.22;2094324;28;20037;-73
2023/03/19 00:10:43;;;;;;;10.95;4.45;;;;;;;11.60;100.00;101179.19;2088396;28;20460;-73
2023/03/19 00:12:06;;;;;;;15.23;4.90;;;;;;;11.55;100.00;101191.47;2092126;28;20052;-73
2023/03/19 00:13:27;;;;;;;10.85;4.30;;;;;;;11.49;100.00;101186.03;2093458;28;20064;-73
2023/03/19 00:14:50;;;;;;;10.23;4.72;;;;;;;11.44;100.00;101182.41;2094209;28;20083;-73
2023/03/19 00:16:14;;;;;;;10.35;4.43;;;;;;;11.39;100.00;101190.25;2090152;28;20044;-73
2023/03/19 00:17:36;;;;;;;11.18;4.65;;;;;;;11.35;100.00;101179.63;2087165;28;20045;-73
2023/03/19 00:18:59;;;;;;;10.15;3.60;;;;;;;11.31;100.00;101176.00;2094165;28;20052;-72
2023/03/19 00:20:21;;;;;;;9.18;4.28;;;;;;;11.29;100.00;101174.22;2094497;28;20175;-73
2023/03/19 00:21:42;;;;;;;12.00;4.50;;;;;;;11.27;100.00;101181.22;2084888;28;20509;-73
2023/03/19 00:23:05;;;;;;;14.27;5.15;;;;;;;11.25;100.00;101170.59;2090222;28;20048;-73
2023/03/19 00:24:27;;;;;;;11.48;4.38;;;;;;;11.23;100.00;101172.31;2086071;28;20136;-73
2023/03/19 00:25:50;;;;;;;11.73;4.30;;;;;;;11.23;100.00;101180.25;2090554;28;20489;-73
2023/03/19 00:27:11;;;;;;;12.75;4.55;;;;;;;11.23;100.00;101176.72;2092091;28;20049;-73
2023/03/19 00:28:34;;;;;;;12.73;4.55;;;;;;;11.19;100.00;101174.03;2095567;28;20056;-73
2023/03/19 00:29:56;;;;;;;11.60;4.50;;;;;;;11.18;100.00;101174.00;2088569;28;20044;-73
2023/03/19 00:31:19;;;;;;;12.10;4.57;;;;;;;11.18;100.00;101169.59;2080421;28;20052;-73
2023/03/19 00:32:41;;;;;;;13.38;4.10;;;;;;;11.18;100.00;101177.53;2090794;28;20056;-73
2023/03/19 00:34:02;;;;;;;10.15;4.40;;;;;;;11.16;100.00;101160.72;2081043;28;20074;-73
2023/03/19 00:35:25;;;;;;;11.63;3.97;;;;;;;11.14;100.00;101143.97;2095418;28;20094;-73
2023/03/19 00:36:48;;;;;;;10.05;4.32;;;;;;;11.14;100.00;101162.47;2094415;28;20075;-73
2023/03/19 00:38:09;;;;;;;12.18;4.57;;;;;;;11.16;100.00;101144.88;2088081;28;20082;-73
2023/03/19 00:39:31;;;;;;;9.68;4.03;;;;;;;11.16;100.00;101151.91;2101398;28;20423;-73
2023/03/19 00:40:53;;;;;;;13.02;4.65;;;;;;;11.18;100.00;101160.78;2089711;28;20540;-73
2023/03/19 00:42:15;;;;;;;11.60;4.43;;;;;;;11.18;100.00;101143.16;2084430;28;20533;-73
2023/03/19 00:43:38;;;;;;;10.38;4.30;;;;;;;11.19;100.00;101144.97;2093485;28;20052;-73
2023/03/19 00:44:59;;;;;;;7.15;3.72;;;;;;;11.17;100.00;101130.81;2085903;28;20049;-73
2023/03/19 00:46:23;;;;;;;6.68;3.67;;;;;;;11.18;100.00;101137.88;2085366;28;20047;-73
2023/03/19 00:47:45;;;;;;;9.07;4.10;;;;;;;11.16;100.00;101126.38;2083775;28;20064;-72
2023/03/19 00:49:08;;;;;;;7.65;4.03;;;;;;;11.15;100.00;101129.91;2083284;28;20041;-73
2023/03/19 00:50:30;;;;;;;7.93;3.90;;;;;;;11.16;100.00;101125.50;2083273;28;20091;-73
2023/03/19 00:51:52;;;;;;;7.05;3.60;;;;;;;11.13;100.00;101126.34;2088786;28;20045;-73
2023/03/19 00:53:14;;;;;;;6.45;3.50;;;;;;;11.13;100.00;101117.53;2092714;28;20106;-74
2023/03/19 00:54:38;;;;;;;7.75;3.35;;;;;;;11.10;100.00;101128.91;2091891;28;20060;-73
2023/03/19 00:56:01;;;;;;;10.65;4.10;;;;;;;11.10;100.00;101131.56;2093354;28;20574;-73
2023/03/19 00:57:23;;;;;;;7.38;3.63;;;;;;;11.10;100.00;101118.34;2093058;28;20447;-73
2023/03/19 00:58:46;;;;;;;8.93;4.00;;;;;;;11.13;100.00;101114.88;2084768;28;20429;-73
2023/03/19 01:00:09;;;;;;;8.43;3.65;;;;;;;11.19;100.00;101109.72;2090422;28;20033;-74
2023/03/19 01:01:33;;;;;;;8.95;3.65;;;;;;;11.24;100.00;101115.06;2085919;28;20040;-73
2023/03/19 01:02:55;;;;;;;9.65;3.75;;;;;;;11.28;100.00;101112.53;2084488;28;20080;-74
2023/03/19 01:04:22;;;;;;;7.82;3.67;;;;;;;11.33;100.00;101136.41;2086235;28;20379;-74
2023/03/19 01:05:43;;;;;;;11.40;4.35;;;;;;;11.28;100.00;101122.22;2085367;28;20136;-75
2023/03/19 01:07:06;;;;;;;11.32;4.55;;;;;;;11.17;100.00;101120.25;2087428;28;20598;-75
2023/03/19 01:08:28;;;;;;;9.10;4.70;;;;;;;11.11;100.00;101122.78;2077687;28;20049;-75
2023/03/19 01:09:52;;;;;;;10.55;4.25;;;;;;;11.05;100.00;101130.59;2086073;28;20140;-75
2023/03/19 01:11:15;;;;;;;8.60;4.38;;;;;;;10.98;100.00;101127.78;2084728;28;20096;-75
2023/03/19 01:12:38;;;;;;;12.60;4.63;;;;;;;10.92;100.00;101149.69;2083102;28;20612;-75
2023/03/19 01:14:01;;;;;;;9.75;5.05;;;;;;;10.90;100.00;101150.50;2085850;28;20136;-75
2023/03/19 01:15:23;;;;;;;11.45;4.20;;;;;;;10.84;100.00;101151.28;2085165;28;20143;-75
2023/03/19 01:16:47;;;;;;;15.52;4.88;;;;;;;10.78;100.00;101146.75;2091781;28;20036;-75
2023/03/19 01:18:10;;;;;;;11.57;3.83;;;;;;;10.70;100.00;101158.00;2100255;28;20056;-74
2023/03/19 01:19:32;;;;;;;11.02;3.25;;;;;;;10.65;100.00;101154.41;2083380;28;20048;-75
2023/03/19 01:20:54;;;;;;;9.52;3.83;;;;;;;10.62;100.00;101181.63;2085329;28;20401;-75
2023/03/19 01:22:16;;;;;;;13.38;3.65;;;;;;;10.61;100.00;101174.56;2090833;28;20099;-75
2023/03/19 01:23:43;;;;;;;17.50;4.05;;;;;;;10.55;100.00;101155.97;2092836;28;20105;-76
2023/03/19 01:25:06;;;;;;;8.70;3.35;;;;;;;10.44;100.00;101164.47;2082969;28;20041;-75
2023/03/19 01:26:30;;;;;;;9.30;3.38;;;;;;;10.34;100.00;101164.28;2083637;28;20396;-76
2023/03/19 01:28:02;;;;;;;12.48;3.85;;;;;;;10.31;100.00;101152.75;2088027;28;20075;-76
2023/03/19 01:29:24;;;;;;;;;;;;;;;10.26;100.00;101157.94;2085953;28;20067;-75
2023/03/19 01:30:46;;;;;;;10.50;3.83;;;;;;;10.23;100.00;101155.25;2079616;28;19924;-75
2023/03/19 01:32:10;;;;;;;9.27;4.15;;;;;;;10.24;100.00;101157.00;2090373;28;20044;-75
2023/03/19 01:34:10;;;;;;;14.77;3.80;;;;;;;10.19;100.00;101153.38;2073535;28;20149;-75
2023/03/19 01:35:41;;;;;;;10.88;4.25;;;;;;;10.17;100.00;101154.22;2071854;28;20061;-75
2023/03/19 01:37:03;;;;;;;;;;;;;;;10.07;100.00;101147.78;2069119;28;20062;-75
2023/03/19 01:38:28;;;;;;;12.05;3.55;;;;;;;10.03;100.00;101143.28;2068929;28;19925;-74
2023/03/19 01:39:56;;;;;;;12.10;4.38;;;;;;;10.03;100.00;101145.94;2081106;28;20470;-74
2023/03/19 01:41:19;;;;;;;16.55;4.88;;;;;;;10.02;100.00;101144.16;2088743;28;20067;-75
2023/03/19 01:42:52;;;;;;;10.75;3.85;;;;;;;10.02;100.00;101132.69;2083354;28;20452;-76
2023/03/19 01:44:40;;;;;;;11.10;3.45;;;;;;;9.96;100.00;101133.44;2087099;28;20053;-76
2023/03/19 01:46:34;;;;;;;10.35;3.30;;;;;;;9.98;100.00;101139.63;2088043;28;20521;-76
2023/03/19 01:48:29;;;;;;;11.00;3.35;;;;;;;9.99;100.00;101126.50;2093359;28;20399;-76
2023/03/19 01:49:58;;;;;;;12.95;3.70;;;;;;;10.02;100.00;101122.16;2087780;28;20094;-75
2023/03/19 01:51:25;;;;;;;10.93;3.65;;;;;;;10.04;100.00;101129.25;2091033;28;20058;-73
2023/03/19 01:53:00;;;;;;;13.18;3.70;;;;;;;10.09;100.00;101127.59;2095878;28;20056;-74
2023/03/19 01:54:45;;;;;;;13.40;3.83;;;;;;;10.14;100.00;101125.97;2084920;28;20049;-74
2023/03/19 01:56:31;;;;;;;10.75;3.33;;;;;;;10.23;100.00;101135.88;2102055;28;20048;-74
2023/03/19 01:58:16;;;;;;;16.73;3.60;;;;;;;10.28;100.00;101135.13;2088175;28;20053;-75
2023/03/19 02:00:13;;;;;;;12.15;3.63;;;;;;;10.08;100.00;101133.75;2085241;28;20051;-77
2023/03/19 02:01:47;;;;;;;10.95;3.60;;;;;;;9.91;100.00;101157.06;2102229;28;20040;-76
2023/03/19 02:03:10;;;;;;;11.43;3.50;;;;;;;9.87;100.00;101151.66;2087738;28;20081;-77
2023/03/19 02:04:53;;;;;;;11.60;3.90;;;;;;;9.84;100.00;101148.97;2079385;28;20413;-76
2023/03/19 02:06:16;;;;;;;9.70;4.18;;;;;;;9.83;100.00;101158.63;2092609;28;20040;-76
2023/03/19 02:07:40;;;;;;;12.55;3.53;;;;;;;9.81;100.00;101141.88;2092637;28;20404;-76
2023/03/19 02:09:03;;;;;;;14.23;4.40;;;;;;;9.80;100.00;101148.00;2084402;28;20093;-76
2023/03/19 02:10:25;;;;;;;15.07;3.85;;;;;;;9.80;100.00;101149.75;2089698;28;20048;-76
2023/03/19 02:11:47;;;;;;;12.20;3.83;;;;;;;9.81;100.00;101154.16;2077245;28;20056;-76
2023/03/19 02:13:09;;;;;;;10.63;4.00;;;;;;;9.82;100.00;101148.03;2082908;28;20083;-76
2023/03/19 02:14:31;;;;;;;12.98;4.30;;;;;;;9.84;100.00;101152.50;2082988;28;20068;-75
2023/03/19 02:15:55;;;;;;;15.23;4.40;;;;;;;9.91;100.00;101159.69;2092553;28;20072;-75
2023/03/19 02:17:21;;;;;;;13.63;4.25;;;;;;;9.94;100.00;101159.78;2086062;28;20161;-75
2023/03/19 02:18:44;;;;;;;15.45;4.80;;;;;;;9.97;100.00;101162.50;2080342;28;20053;-75
2023/03/19 02:20:18;;;;;;;16.02;4.28;;;;;;;10.04;100.00;101153.00;2074432;28;20044;-74
2023/03/19 02:21:41;;;;;;;21.08;4.72;;;;;;;10.06;100.00;101148.63;2091201;28;20672;-75
2023/03/19 02:23:14;;;;;;;12.82;3.97;;;;;;;10.13;100.00;101137.38;2077331;28;20752;-75
2023/03/19 02:24:44;;;;;;;11.93;3.80;;;;;;;10.16;100.00;101158.56;2084984;28;20088;-75
2023/03/19 02:26:14;;;;;;;15.00;4.55;;;;;;;10.18;100.00;101162.13;2084378;28;20600;-76
2023/03/19 02:27:37;;;;;;;12.90;4.75;;;;;;;10.17;100.00;101162.13;2082128;28;20045;-77
2023/03/19 02:28:59;;;;;;;13.93;4.30;;;;;;;10.09;100.00;101177.72;2093204;28;20118;-76
2023/03/19 02:30:30;;;;;;;13.82;4.75;;;;;;;10.04;100.00;101194.31;2087768;28;20083;-76
2023/03/19 02:31:55;;;;;;;17.38;5.05;;;;;;;9.98;100.00;101174.81;2085595;28;20541;-76
2023/03/19 02:33:18;;;;;;;12.38;5.10;;;;;;;9.95;100.00;101182.66;2092355;28;20044;-76
2023/03/19 02:34:43;;;;;;;9.27;3.72;;;;;;;9.92;100.00;101179.94;2101138;28;20136;-75
2023/03/19 02:36:08;;;;;;;10.25;3.85;;;;;;;9.89;100.00;101165.78;2089554;28;20057;-76
2023/03/19 02:37:31;;;;;;;7.75;3.25;;;;;;;9.82;100.00;101166.50;2084123;28;20505;-75
2023/03/19 02:38:54;;;;;;;6.97;3.00;;;;;;;9.76;100.00;101180.41;2091520;28;20052;-75
2023/03/19 02:40:21;;;;;;;8.23;2.80;;;;;;;9.73;100.00;101188.25;2079104;28;20192;-76
2023/03/19 02:41:47;;;;;;;9.57;2.83;;;;;;;9.71;100.00;101186.44;2092535;28;20079;-75
2023/03/19 02:43:10;;;;;;;9.52;3.85;;;;;;;9.74;100.00;101197.03;2095940;28;20077;-75
2023/03/19 02:44:33;;;;;;;12.18;4.50;;;;;;;9.80;100.00;101210.38;2099677;28;20040;-75
2023/03/19 02:45:56;;;;;;;17.10;3.65;;;;;;;9.88;100.00;101200.94;2086867;28;20076;-75
2023/03/19 02:47:17;;;;;;;12.70;3.88;;;;;;;9.94;100.00;101196.69;2078619;28;20398;-76
2023/03/19 02:48:40;;;;;;;8.10;3.65;;;;;;;9.97;100.00;101206.44;2084655;28;20033;-76
2023/03/19 02:50:01;;;;;;;8.30;3.10;;;;;;;10.00;100.00;101198.59;2079770;28;20048;-75
2023/03/19 02:51:23;;;;;;;10.73;3.78;;;;;;;10.00;100.00;101182.75;2086795;28;20069;-77
2023/03/19 02:52:46;;;;;;;13.07;3.70;;;;;;;9.97;100.00;101201.16;2092330;28;20052;-76
2023/03/19 02:54:09;;;;;;;7.57;3.25;;;;;;;9.92;100.00;101195.75;2089350;28;20544;-76
2023/03/19 02:55:31;;;;;;;12.75;3.92;;;;;;;9.90;100.00;101201.88;2078514;28;20107;-77
2023/03/19 02:56:55;;;;;;;12.00;4.10;;;;;;;9.86;100.00;101195.59;2086200;28;20041;-76
2023/03/19 02:58:18;;;;;;;12.73;4.10;;;;;;;9.83;100.00;101195.53;2085826;28;20386;-76
2023/03/19 02:59:39;;;;;;;12.98;4.18;;;;;;;9.88;100.00;101200.94;2083950;28;20045;-75
2023/03/19 03:01:02;;;;;;;13.68;4.13;;;;;;;9.92;100.00;101206.31;2084367;28;20049;-76
2023/03/19 03:02:26;;;;;;;12.50;4.72;;;;;;;9.97;100.00;101198.53;2094870;28;20464;-76
2023/03/19 03:03:47;;;;;;;16.90;4.40;;;;;;;10.02;100.00;101193.38;2091894;28;20139;-76
2023/03/19 03:05:09;;;;;;;15.00;4.30;;;;;;;10.05;100.00;101218.06;2088703;28;20041;-77
2023/03/19 03:06:31;;;;;;;8.48;3.53;;;;;;;10.07;100.00;101208.44;2089172;28;20144;-78
2023/03/19 03:07:54;;;;;;;13.30;4.22;;;;;;;10.05;100.00;101210.13;2085698;28;20440;-78
2023/03/19 03:09:15;;;;;;;11.05;4.10;;;;;;;10.06;100.00;101197.84;2098537;28;20059;-78
2023/03/19 03:10:38;;;;;;;12.63;4.47;;;;;;;10.07;100.00;101194.34;2093228;28;20139;-78
2023/03/19 03:12:03;;;;;;;12.75;3.88;;;;;;;10.07;100.00;101189.97;2103263;28;20047;-78
2023/03/19 03:13:26;;;;;;;11.98;3.95;;;;;;;10.08;100.00;101193.50;2092945;28;20075;-77
2023/03/19 03:14:49;;;;;;;14.73;4.70;;;;;;;10.10;100.00;101202.34;2086519;28;20044;-77
2023/03/19 03:16:10;;;;;;;9.52;4.13;;;;;;;10.12;100.00;101196.25;2092590;28;20040;-77
2023/03/19 03:17:32;;;;;;;17.58;4.63;;;;;;;10.15;100.00;101192.81;2089153;28;20106;-76
2023/03/19 03:18:55;;;;;;;18.40;4.20;;;;;;;10.17;100.00;101189.41;2086122;28;20075;-76
2023/03/19 03:20:18;;;;;;;9.40;4.65;;;;;;;10.20;100.00;101194.72;2094846;28;20044;-77
2023/03/19 03:21:41;;;;;;;11.25;3.92;;;;;;;10.21;100.00;101191.25;2086956;28;20048;-76
2023/03/19 03:23:03;;;;;;;13.07;4.57;;;;;;;10.24;100.00;101186.00;2086104;28;20052;-76
2023/03/19 03:24:25;;;;;;;17.35;4.70;;;;;;;10.25;100.00;101179.00;2087626;28;20045;-76
2023/03/19 03:25:50;;;;;;;16.08;4.35;;;;;;;10.28;100.00;101192.28;2090674;28;20106;-76
2023/03/19 03:27:15;;;;;;;15.15;4.57;;;;;;;10.29;100.00;101180.88;2087917;28;20040;-75
2023/03/19 03:28:38;;;;;;;15.77;4.80;;;;;;;10.33;100.00;101180.97;2102894;28;20065;-76
2023/03/19 03:30:00;;;;;;;13.95;4.60;;;;;;;10.36;100.00;101188.97;2099313;28;20400;-75
2023/03/19 03:31:22;;;;;;;16.10;5.07;;;;;;;10.38;100.00;101187.25;2088998;28;20052;-76
2023/03/19 03:32:44;;;;;;;11.82;4.70;;;;;;;10.39;100.00;101186.38;2084918;28;20060;-76
2023/03/19 03:34:06;;;;;;;15.93;5.53;;;;;;;10.41;100.00;101196.09;2087974;28;20040;-76
2023/03/19 03:35:29;;;;;;;15.82;5.10;;;;;;;10.43;100.00;101199.66;2096818;28;20535;-76
2023/03/19 03:36:51;;;;;;;14.57;4.95;;;;;;;10.45;100.00;101208.50;2085616;28;20059;-76
2023/03/19 03:38:13;;;;;;;17.73;5.00;;;;;;;10.44;100.00;101201.41;2083154;28;20420;-76
2023/03/19 03:39:34;;;;;;;14.52;4.95;;;;;;;10.45;100.00;101205.84;2090232;28;20056;-78
2023/03/19 03:40:56;;;;;;;14.18;4.35;;;;;;;10.42;100.00;101205.78;2084245;28;20037;-77
2023/03/19 03:42:22;;;;;;;15.88;5.35;;;;;;;10.36;100.00;101210.09;2081808;28;20183;-77
2023/03/19 03:43:45;;;;;;;15.38;4.57;;;;;;;10.31;100.00;101211.69;2083051;28;20505;-78
2023/03/19 03:45:08;;;;;;;19.00;5.78;;;;;;;10.29;100.00;101223.09;2083953;28;20057;-77
2023/03/19 03:46:31;;;;;;;14.70;4.95;;;;;;;10.26;100.00;101218.63;2081989;28;20045;-77
2023/03/19 03:47:54;;;;;;;18.48;4.85;;;;;;;10.24;100.00;101230.88;2082502;28;20053;-76
2023/03/19 03:49:17;;;;;;;16.02;5.05;;;;;;;10.25;100.00;101218.56;2092830;28;20044;-77
2023/03/19 03:50:39;;;;;;;16.88;5.05;;;;;;;10.28;100.00;101226.56;2086958;28;20037;-77
2023/03/19 03:52:04;;;;;;;14.13;4.40;;;;;;;10.30;100.00;101231.06;2086152;28;20037;-77
2023/03/19 03:53:27;;;;;;;17.38;5.25;;;;;;;10.33;100.00;101224.94;2086678;28;20076;-77
2023/03/19 03:54:49;;;;;;;15.60;4.32;;;;;;;10.34;100.00;101213.53;2078054;28;20569;-78
2023/03/19 03:56:11;;;;;;;15.57;5.13;;;;;;;10.37;100.00;101213.63;2085909;28;20053;-77
2023/03/19 03:57:35;;;;;;;21.20;5.63;;;;;;;10.39;100.00;101210.13;2079592;28;20045;-76
2023/03/19 03:58:56;;;;;;;17.45;5.10;;;;;;;10.41;100.00;101218.09;2089869;28;20049;-76
2023/03/19 04:00:19;;;;;;;19.75;6.20;;;;;;;10.43;100.00;101212.88;2080818;28;20048;-76
2023/03/19 04:01:41;;;;;;;17.60;5.40;;;;;;;10.43;100.00;101205.84;2091178;28;20119;-76
2023/03/19 04:03:04;;;;;;;20.17;4.50;;;;;;;10.42;100.00;101211.06;2085966;28;20037;-76
2023/03/19 04:04:25;;;;;;;18.58;5.63;;;;;;;10.42;100.00;101205.78;2078207;28;20046;-76
2023/03/19 04:05:47;;;;;;;17.08;4.47;;;;;;;10.41;100.00;101196.09;2088340;28;20040;-75
2023/03/19 04:07:11;;;;;;;17.50;4.80;;;;;;;10.41;100.00;101194.34;2080564;28;20083;-74
2023/03/19 04:08:42;;;;;;;16.58;4.25;;;;;;;10.41;100.00;101206.66;2086657;28;20522;-74
2023/03/19 04:10:04;;;;;;;18.17;4.80;;;;;;;10.43;100.00;101197.91;2082793;28;20033;-74
2023/03/19 04:11:26;;;;;;;14.10;4.30;;;;;;;10.45;100.00;101205.84;2089992;28;20399;-74
2023/03/19 04:12:50;;;;;;;16.63;4.95;;;;;;;10.48;100.00;101205.94;2090151;28;20094;-75
2023/03/19 04:14:13;;;;;;;11.80;3.92;;;;;;;10.50;100.00;101204.22;2086583;28;20041;-74
2023/03/19 04:15:35;;;;;;;11.57;3.75;;;;;;;10.53;100.00;101205.19;2082747;28;20155;-74
2023/03/19 04:16:58;;;;;;;15.02;3.97;;;;;;;10.54;100.00;101200.78;2090454;28;20045;-74
2023/03/19 04:18:19;;;;;;;12.25;3.47;;;;;;;10.56;100.00;101196.44;2088299;28;20103;-74
2023/03/19 04:19:42;;;;;;;15.52;3.97;;;;;;;10.55;100.00;101192.91;2086097;28;20056;-74
2023/03/19 04:21:06;;;;;;;16.52;4.45;;;;;;;10.56;100.00;101207.00;2081499;28;20245;-74
2023/03/19 04:22:27;;;;;;;13.45;3.33;;;;;;;10.58;100.00;101207.91;2094640;28;20405;-74
2023/03/19 04:23:50;;;;;;;15.70;3.42;;;;;;;10.59;100.00;101201.78;2088337;28;20056;-75
2023/03/19 04:25:11;;;;;;;16.42;3.65;;;;;;;10.60;100.00;101203.56;2087956;28;20509;-75
2023/03/19 04:26:35;;;;;;;18.00;3.95;;;;;;;10.64;100.00;101187.81;2085106;28;20578;-73
2023/03/19 04:27:59;;;;;;;16.92;3.53;;;;;;;10.67;100.00;101205.50;2083178;28;20052;-74
2023/03/19 04:29:23;;;;;;;9.90;3.67;;;;;;;10.68;100.00;101207.28;2092628;28;20044;-75
2023/03/19 04:30:46;;;;;;;12.30;3.85;;;;;;;10.70;100.00;101205.53;2091419;28;20488;-74
2023/03/19 04:32:08;;;;;;;14.90;3.72;;;;;;;10.71;100.00;101200.31;2085297;28;20052;-74
2023/03/19 04:33:30;;;;;;;12.60;3.17;;;;;;;10.73;100.00;101206.50;2085353;28;20049;-74
2023/03/19 04:34:53;;;;;;;13.75;3.75;;;;;;;10.74;100.00;101210.94;2083507;28;20140;-75
2023/03/19 04:36:16;;;;;;;16.85;4.05;;;;;;;10.77;100.00;101207.47;2085707;28;20126;-74
2023/03/19 04:37:39;;;;;;;12.50;3.38;;;;;;;10.79;100.00;101219.84;2083589;28;20068;-74
2023/03/19 04:39:01;;;;;;;13.60;4.03;;;;;;;10.80;100.00;101215.47;2089192;28;20041;-74
2023/03/19 04:40:23;;;;;;;14.10;3.55;;;;;;;10.82;100.00;101216.41;2085266;28;20758;-75
2023/03/19 04:41:46;;;;;;;18.00;3.78;;;;;;;10.86;100.00;101219.97;2082907;28;20087;-74
2023/03/19 04:43:22;;;;;;;9.70;3.55;;;;;;;10.86;100.00;101218.22;2086478;28;20131;-74
2023/03/19 04:44:44;;;;;;;9.02;3.70;;;;;;;10.89;100.00;101210.41;2096391;28;20048;-74
2023/03/19 04:46:08;;;;;;;13.25;3.95;;;;;;;10.90;100.00;101205.97;2080439;28;20045;-73
2023/03/19 04:47:30;;;;;;;15.85;4.20;;;;;;;10.92;100.00;101215.72;2084360;28;20136;-73
2023/03/19 04:48:56;;;;;;;10.57;4.18;;;;;;;10.95;100.00;101225.47;2075652;28;20441;-74
2023/03/19 04:50:17;;;;;;;15.05;3.95;;;;;;;10.97;100.00;101223.75;2086130;28;20620;-74
2023/03/19 04:51:40;;;;;;;;;;;;;;;10.94;100.00;101227.22;2078047;28;20053;-74
2023/03/19 04:53:01;;;;;;;;;;;;;;;10.90;100.00;101224.47;2086361;28;19924;-73
2023/03/19 04:54:24;;;;;;;9.45;3.63;;;;;;;10.90;100.00;101235.03;2079883;28;19921;-73
2023/03/19 04:55:46;;;;;;;12.77;3.65;;;;;;;10.90;100.00;101217.44;2083553;28;20087;-73
2023/03/19 04:57:12;;;;;;;15.10;4.00;;;;;;;10.90;100.00;101230.63;2083843;28;20132;-73
2023/03/19 04:58:38;;;;;;;12.55;3.53;;;;;;;10.92;100.00;101244.78;2082709;28;20057;-73
2023/03/19 04:59:59;;;;;;;16.02;4.35;;;;;;;10.93;100.00;101241.28;2085481;28;20124;-72
2023/03/19 05:01:22;;;;;;;14.10;3.75;;;;;;;10.94;100.00;101234.25;2082831;28;20033;-73
2023/03/19 05:02:55;;;;;;;15.20;4.40;;;;;;;10.94;100.00;101235.16;2082993;28;20467;-74
2023/03/19 05:04:17;;;;;;;12.95;3.40;;;;;;;10.96;100.00;101230.75;2082794;28;20544;-74
2023/03/19 05:05:39;;;;;;;12.48;3.65;;;;;;;10.99;100.00;101222.91;2082819;28;20049;-73
2023/03/19 05:07:03;;;;;;;10.80;3.58;;;;;;;11.03;100.00;101234.44;2092993;28;20032;-73
2023/03/19 05:08:26;;;;;;;14.65;4.03;;;;;;;11.07;100.00;101234.56;2086098;28;20045;-73
2023/03/19 05:09:50;;;;;;;12.23;3.75;;;;;;;11.10;100.00;101239.88;2089964;28;20086;-74
2023/03/19 05:11:13;;;;;;;;;;;;;;;11.07;100.00;101253.03;2080606;28;20133;-73
2023/03/19 05:12:50;;;;;;;13.55;3.13;;;;;;;11.11;100.00;101238.13;2087297;28;19926;-73
2023/03/19 05:14:14;;;;;;;10.48;3.92;;;;;;;11.14;100.00;101247.03;2080382;28;20061;-74
2023/03/19 05:15:59;;;;;;;14.82;4.28;;;;;;;11.17;100.00;101241.78;2094131;28;20048;-73
2023/03/19 05:17:20;;;;;;;15.05;3.97;;;;;;;11.20;100.00;101238.34;2085499;28;20497;-72
2023/03/19 05:18:56;;;;;;;13.15;3.30;;;;;;;11.22;100.00;101233.97;2085106;28;20608;-73
2023/03/19 05:20:19;;;;;;;12.85;3.72;;;;;;;11.25;100.00;101234.03;2083163;28;20529;-72
2023/03/19 05:21:47;;;;;;;14.25;4.45;;;;;;;11.29;100.00;101237.63;2084925;28;20052;-73
2023/03/19 05:23:12;;;;;;;17.70;3.60;;;;;;;11.31;100.00;101236.78;2094059;28;20053;-73
2023/03/19 05:24:42;;;;;;;15.68;4.03;;;;;;;11.32;100.00;101242.97;2087492;28;20486;-72
2023/03/19 05:26:03;;;;;;;12.65;3.70;;;;;;;11.35;100.00;101240.41;2092787;28;20048;-73
2023/03/19 05:27:52;;;;;;;14.95;3.85;;;;;;;11.36;100.00;101243.06;2094862;28;20125;-73
2023/03/19 05:29:19;;;;;;;11.75;3.20;;;;;;;11.39;100.00;101232.56;2088090;28;20066;-73
2023/03/19 05:30:52;;;;;;;11.15;3.40;;;;;;;11.42;100.00;101221.16;2085154;28;20036;-73
2023/03/19 05:32:29;;;;;;;14.77;3.58;;;;;;;11.43;100.00;101238.78;2079355;28;20056;-72
2023/03/19 05:33:51;;;;;;;17.30;3.17;;;;;;;11.47;100.00;101245.94;2078839;28;20049;-72
2023/03/19 05:35:14;;;;;;;18.45;3.95;;;;;;;11.49;100.00;101253.00;2083379;28;20059;-72
2023/03/19 05:36:35;;;;;;;18.48;3.75;;;;;;;11.51;100.00;101240.72;2077252;28;20463;-72
2023/03/19 05:38:07;;;;;;;14.68;3.60;;;;;;;11.56;100.00;101254.91;2085089;28;20051;-72
2023/03/19 05:39:28;;;;;;;14.88;3.45;;;;;;;11.58;100.00;101247.91;2085690;28;20041;-72
2023/03/19 05:40:54;;;;;;;16.67;3.58;;;;;;;11.61;100.00;101251.50;2093302;28;20063;-72
2023/03/19 05:42:22;;;;;;;13.48;3.13;;;;;;;11.59;100.00;101252.34;2079720;28;20754;-72
2023/03/19 05:43:45;;;;;;;11.25;3.00;;;;;;;11.60;100.00;101242.66;2085070;28;20052;-72
2023/03/19 05:45:19;;;;;;;14.48;3.33;;;;;;;11.62;100.00;101254.13;2078517;28;20060;-72
2023/03/19 05:46:45;;;;;;;11.98;3.28;;;;;;;11.64;100.00;101260.34;2091765;28;20083;-72
2023/03/19 05:48:08;;;;;;;10.88;2.70;;;;;;;11.67;100.00;101257.78;2085165;28;20029;-72
2023/03/19 05:49:35;;;;;;;12.10;3.25;;;;;;;11.70;100.00;101262.22;2078013;28;20053;-72
2023/03/19 05:51:00;;;;;;;19.15;3.38;;;;;;;11.71;100.00;101258.72;2084355;28;20069;-72
2023/03/19 05:52:27;;;;;;;12.90;3.60;;;;;;;11.72;100.00;101274.63;2077960;28;20048;-72
2023/03/19 05:53:53;;;;;;;13.90;3.20;;;;;;;11.74;100.00;101267.66;2082349;28;20052;-72
2023/03/19 05:55:30;;;;;;;9.85;2.67;;;;;;;11.75;100.00;101258.84;2074005;28;20049;-72
2023/03/19 05:56:58;;;;;;;16.92;3.35;;;;;;;11.78;100.00;101268.59;2086479;28;20159;-72
2023/03/19 05:58:36;;;;;;;11.10;2.63;;;;;;;11.79;100.00;101254.50;2079259;28;20051;-72
2023/03/19 05:59:58;;;;;;;11.88;2.75;;;;;;;11.78;100.00;101260.66;2081600;28;20267;-73
2023/03/19 06:01:37;;;;;;;13.23;2.80;;;;;;;11.75;100.00;101268.56;2094352;28;20528;-73
2023/03/19 06:03:00;;;;;;;11.57;3.10;;;;;;;11.73;100.00;101262.28;2093831;28;20079;-72
2023/03/19 06:04:21;;;;;;;12.48;3.20;;;;;;;11.73;100.00;101276.41;2095298;28;20052;-73
2023/03/19 06:05:44;;;;;;;11.40;3.00;;;;;;;11.72;100.00;101274.63;2089684;28;20559;-72
2023/03/19 06:07:14;;;;;;;13.77;3.08;;;;;;;11.72;100.00;101274.63;2082591;28;20091;-72
2023/03/19 06:08:37;;;;;;;13.77;3.10;;;;;;;11.71;100.00;101288.72;2082240;28;20052;-73
2023/03/19 06:10:21;;;;;;;14.60;3.00;;;;;;;11.70;100.00;101278.97;2082113;28;20141;-72
2023/03/19 06:11:47;;;;;;;12.10;3.00;;;;;;;11.69;100.00;101285.13;2090409;28;20045;-73
2023/03/19 06:13:30;;;;;;;10.55;3.08;;;;;;;11.68;100.00;101285.13;2089793;28;20579;-72
2023/03/19 06:15:00;;;;;;;12.23;3.10;;;;;;;11.66;100.00;101292.13;2089731;28;20072;-73
2023/03/19 06:16:44;;;;;;;12.65;2.70;;;;;;;11.61;100.00;101292.06;2094299;28;20098;-73
2023/03/19 06:18:07;;;;;;;13.15;2.78;;;;;;;11.59;100.00;101285.81;2087150;28;20096;-73
2023/03/19 06:19:29;;;;;;;;;;;;;;;11.53;100.00;101289.25;2085458;28;20072;-73
2023/03/19 06:20:50;;;;;;;9.50;2.88;;;;;;;11.54;100.00;101298.06;2079939;28;19921;-73
2023/03/19 06:22:13;;;;;;;;;;;;;;;11.49;100.00;101287.38;2095760;28;20120;-73
2023/03/19 06:23:35;;;;;;;18.02;4.82;;;;;;;11.54;100.00;101300.72;2086430;28;19943;-73
2023/03/19 06:24:59;;;;;;;12.90;3.60;;;;;;;11.61;100.00;101299.97;2083446;28;20144;-73
2023/03/19 06:26:22;;;;;;;10.25;2.42;;;;;;;11.65;100.00;101293.88;2083185;28;20091;-72
2023/03/19 06:27:50;;;;;;;13.15;3.03;;;;;;;11.67;100.00;101302.75;2089290;28;20059;-73
2023/03/19 06:29:35;;;;;;;13.45;4.13;;;;;;;11.65;100.00;101303.56;2087488;28;20687;-73
2023/03/19 06:31:10;;;;;;;10.93;3.08;;;;;;;11.58;100.00;101310.47;2088645;28;20593;-73